createdAt,value
2017-05-19T00:02:18.377Z,10.14
2017-05-19T00:04:47.351Z,10.78
2017-05-19T00:07:16.905Z,12.66
2017-05-19T00:09:46.540Z,10.24
2017-05-19T00:12:16.287Z,11.34
2017-05-19T00:14:45.247Z,11.66
2017-05-19T00:17:14.603Z,10.76
2017-05-19T00:19:43.587Z,12.52
2017-05-19T00:22:12.708Z,11.88
2017-05-19T00:24:42.472Z,11.74
2017-05-19T00:27:11.452Z,12.68
2017-05-19T00:29:40.719Z,12.46
2017-05-19T00:32:10.444Z,11.92
2017-05-19T00:34:39.414Z,11.28
2017-05-19T00:37:09.145Z,10.80
2017-05-19T00:39:38.103Z,10.12
2017-05-19T00:42:07.898Z,11.22
2017-05-19T00:44:36.863Z,11.36
2017-05-19T00:47:05.896Z,10.80
2017-05-19T00:49:35.609Z,12.10
2017-05-19T00:52:05.621Z,11.32
2017-05-19T00:54:35.356Z,10.88
2017-05-19T00:57:04.334Z,11.10
2017-05-19T00:59:34.079Z,11.30
2017-05-19T01:02:03.061Z,11.60
2017-05-19T01:04:32.042Z,11.74
2017-05-19T01:07:01.059Z,10.82
2017-05-19T01:09:30.048Z,11.30
2017-05-19T01:11:59.034Z,12.00
2017-05-19T01:14:28.296Z,12.32
2017-05-19T01:16:58.005Z,10.50
2017-05-19T01:19:27.749Z,12.80
2017-05-19T01:21:59.988Z,11.26
2017-05-19T01:24:28.973Z,11.72
2017-05-19T01:26:59.044Z,10.92
2017-05-19T01:29:27.976Z,11.16
2017-05-19T01:31:56.972Z,10.92
2017-05-19T01:34:30.321Z,11.78
2017-05-19T01:36:59.277Z,9.76
2017-05-19T01:39:28.250Z,11.02
2017-05-19T01:41:57.209Z,11.10
2017-05-19T01:44:26.222Z,10.00
2017-05-19T01:46:55.949Z,12.36
2017-05-19T01:49:24.937Z,12.00
2017-05-19T01:51:53.971Z,11.52
2017-05-19T01:54:22.966Z,10.82
2017-05-19T01:56:51.945Z,11.78
2017-05-19T01:59:20.978Z,10.50
2017-05-19T02:01:50.690Z,11.60
2017-05-19T02:04:19.970Z,11.32
2017-05-19T02:06:48.944Z,11.36
2017-05-19T02:09:17.901Z,10.38
2017-05-19T02:11:46.899Z,11.04
2017-05-19T02:14:15.872Z,10.28
2017-05-19T02:16:44.888Z,10.14
2017-05-19T02:19:13.856Z,10.30
2017-05-19T02:21:43.103Z,10.62
2017-05-19T02:24:12.074Z,10.68
2017-05-19T02:26:41.030Z,10.32
2017-05-19T02:29:10.004Z,10.94
2017-05-19T02:31:39.734Z,11.02
2017-05-19T02:34:08.743Z,10.92
2017-05-19T02:36:37.724Z,11.48
2017-05-19T02:39:06.725Z,11.06
2017-05-19T02:41:35.704Z,10.12
2017-05-19T02:44:04.683Z,11.10
2017-05-19T02:46:33.663Z,11.16
2017-05-19T02:49:03.389Z,12.16
2017-05-19T02:51:32.394Z,10.72
2017-05-19T02:54:01.330Z,11.22
2017-05-19T02:56:30.331Z,11.98
2017-05-19T02:58:59.588Z,11.98
2017-05-19T03:01:28.552Z,10.78
2017-05-19T03:03:57.522Z,11.88
2017-05-19T03:06:27.276Z,11.30
2017-05-19T03:08:56.249Z,10.64
2017-05-19T03:11:25.233Z,10.42
2017-05-19T03:13:54.208Z,10.70
2017-05-19T03:16:24.007Z,10.28
2017-05-19T03:18:53.723Z,9.73
2017-05-19T03:21:22.994Z,10.02
2017-05-19T03:23:51.976Z,9.90
2017-05-19T03:26:20.965Z,9.20
2017-05-19T03:28:49.992Z,9.90
2017-05-19T03:31:18.980Z,8.70
2017-05-19T03:33:48.721Z,10.23
2017-05-19T03:36:17.705Z,9.52
2017-05-19T03:38:46.618Z,9.23
2017-05-19T03:41:15.628Z,10.35
2017-05-19T03:43:44.633Z,9.78
2017-05-19T03:46:13.622Z,9.05
2017-05-19T03:48:42.938Z,9.77
2017-05-19T03:51:11.856Z,10.60
2017-05-19T03:53:40.884Z,9.34
2017-05-19T03:56:09.887Z,9.90
2017-05-19T03:58:38.867Z,11.60
2017-05-19T04:01:07.850Z,11.22
2017-05-19T04:03:36.800Z,9.32
2017-05-19T04:06:06.772Z,8.80
2017-05-19T04:08:35.769Z,9.78
2017-05-19T04:11:04.724Z,9.03
2017-05-19T04:13:33.720Z,9.42
2017-05-19T04:16:02.713Z,9.02
2017-05-19T04:18:31.697Z,9.05
2017-05-19T04:21:00.671Z,8.98
2017-05-19T04:23:29.679Z,9.44
2017-05-19T04:25:58.647Z,9.17
2017-05-19T04:28:27.632Z,9.60
2017-05-19T04:30:56.616Z,10.10
2017-05-19T04:33:26.352Z,7.95
2017-05-19T04:35:55.359Z,10.96
2017-05-19T04:38:24.370Z,10.06
2017-05-19T04:40:53.339Z,10.72
2017-05-19T04:43:22.336Z,8.04
2017-05-19T04:45:51.308Z,8.20
2017-05-19T04:48:20.316Z,8.90
2017-05-19T04:50:49.290Z,11.58
2017-05-19T04:53:18.270Z,8.40
2017-05-19T04:55:47.229Z,11.86
2017-05-19T04:58:16.530Z,9.68
2017-05-19T05:00:46.243Z,9.32
2017-05-19T05:03:15.207Z,8.92
2017-05-19T05:05:44.204Z,9.10
2017-05-19T05:08:13.178Z,14.90
2017-05-19T05:10:42.159Z,16.36
2017-05-19T05:13:11.148Z,21.86
2017-05-19T05:15:40.459Z,14.78
2017-05-19T05:18:09.590Z,11.62
2017-05-19T05:20:39.306Z,10.90
2017-05-19T05:23:09.036Z,9.48
2017-05-19T05:25:37.994Z,11.12
2017-05-19T05:28:06.965Z,11.04
2017-05-19T05:30:35.951Z,13.52
2017-05-19T05:33:05.275Z,11.62
2017-05-19T05:35:34.230Z,12.24
2017-05-19T05:38:03.189Z,11.70
2017-05-19T05:40:32.172Z,10.48
2017-05-19T05:43:01.155Z,9.46
2017-05-19T05:45:31.118Z,8.54
2017-05-19T05:48:00.101Z,7.66
2017-05-19T05:50:29.058Z,7.46
2017-05-19T05:52:58.054Z,8.30
2017-05-19T05:55:27.013Z,8.88
2017-05-19T05:57:56.012Z,7.22
2017-05-19T06:00:25.721Z,7.76
2017-05-19T06:02:55.001Z,7.18
2017-05-19T06:05:23.971Z,6.64
2017-05-19T06:07:52.922Z,6.22
2017-05-19T06:10:21.893Z,6.40
2017-05-19T06:12:51.584Z,8.08
2017-05-19T06:15:20.573Z,7.00
2017-05-19T06:17:49.543Z,6.12
2017-05-19T06:20:18.451Z,6.34
2017-05-19T06:22:48.189Z,6.86
2017-05-19T06:25:18.197Z,6.52
2017-05-19T06:27:47.927Z,6.52
2017-05-19T06:30:16.907Z,6.20
2017-05-19T06:32:46.630Z,7.20
2017-05-19T06:35:15.570Z,6.36
2017-05-19T06:37:44.856Z,6.74
2017-05-19T06:40:13.805Z,6.00
2017-05-19T06:42:42.872Z,5.30
2017-05-19T06:45:12.594Z,6.32
2017-05-19T06:47:42.299Z,6.18
2017-05-19T06:50:12.294Z,6.60
2017-05-19T06:52:41.250Z,6.00
2017-05-19T06:55:10.210Z,5.38
2017-05-19T06:57:39.185Z,5.98
2017-05-19T07:00:08.883Z,5.44
2017-05-19T07:02:38.871Z,5.32
2017-05-19T07:05:07.835Z,5.38
2017-05-19T07:07:36.784Z,5.54
2017-05-19T07:10:06.497Z,5.70
2017-05-19T07:12:36.196Z,5.88
2017-05-19T07:15:06.182Z,5.88
2017-05-19T07:17:35.130Z,5.48
2017-05-19T07:20:04.092Z,5.96
2017-05-19T07:22:33.829Z,5.32
2017-05-19T07:25:02.782Z,6.18
2017-05-19T07:27:32.049Z,5.68
2017-05-19T07:30:01.028Z,6.50
2017-05-19T07:32:29.986Z,5.48
2017-05-19T07:34:59.194Z,5.30
2017-05-19T07:37:28.155Z,5.14
2017-05-19T07:39:57.870Z,4.54
2017-05-19T07:42:27.876Z,5.48
2017-05-19T07:44:57.587Z,6.20
2017-05-19T07:47:27.313Z,5.86
2017-05-19T07:49:56.533Z,5.10
2017-05-19T07:52:25.472Z,6.38
2017-05-19T07:54:54.441Z,6.88
2017-05-19T07:57:23.659Z,5.70
2017-05-19T07:59:52.623Z,6.20
2017-05-19T08:02:21.589Z,7.34
2017-05-19T08:04:50.851Z,6.52
2017-05-19T08:07:19.825Z,6.22
2017-05-19T08:09:48.728Z,6.30
2017-05-19T08:12:18.747Z,7.12
2017-05-19T08:14:48.455Z,6.40
2017-05-19T08:17:18.177Z,6.58
2017-05-19T08:19:47.516Z,6.46
2017-05-19T08:22:16.490Z,7.30
2017-05-19T08:24:45.459Z,7.58
2017-05-19T08:27:14.729Z,7.90
2017-05-19T08:29:43.675Z,8.46
2017-05-19T08:32:12.646Z,7.42
2017-05-19T08:34:41.993Z,7.60
2017-05-19T08:37:11.077Z,7.20
2017-05-19T08:39:40.046Z,7.48
2017-05-19T08:42:09.302Z,6.68
2017-05-19T08:44:39.000Z,7.08
2017-05-19T08:47:09.106Z,6.72
2017-05-19T08:49:38.068Z,6.72
2017-05-19T08:52:07.030Z,6.56
2017-05-19T08:54:37.197Z,8.10
2017-05-19T08:57:06.149Z,9.40
2017-05-19T09:00:19.398Z,8.90
2017-05-19T09:02:47.595Z,7.92
2017-05-19T09:05:16.580Z,8.80
2017-05-19T09:07:45.545Z,9.16
2017-05-19T09:10:14.577Z,9.70
2017-05-19T09:12:43.567Z,8.86
2017-05-19T09:15:11.792Z,10.28
2017-05-19T09:17:40.769Z,9.58
2017-05-19T09:20:09.734Z,8.14
2017-05-19T09:22:38.717Z,9.94
2017-05-19T09:25:07.806Z,9.62
2017-05-19T09:27:36.811Z,9.50
2017-05-19T09:30:05.821Z,9.68
2017-05-19T09:32:34.788Z,16.30
2017-05-19T09:35:03.810Z,10.84
2017-05-19T09:37:32.776Z,9.92
2017-05-19T09:40:01.765Z,11.48
2017-05-19T09:42:30.731Z,11.50
2017-05-19T09:44:59.765Z,10.24
2017-05-19T09:47:28.807Z,10.26
2017-05-19T09:49:58.216Z,9.24
2017-05-19T09:52:27.182Z,11.62
2017-05-19T09:54:56.166Z,10.62
2017-05-19T09:57:25.226Z,10.44
2017-05-19T09:59:54.202Z,8.42
2017-05-19T10:02:23.194Z,9.46
2017-05-19T10:04:52.167Z,8.82
2017-05-19T10:07:20.402Z,10.26
2017-05-19T10:09:49.372Z,8.84
2017-05-19T10:12:18.358Z,8.56
2017-05-19T10:14:47.384Z,8.44
2017-05-19T10:17:16.403Z,9.28
2017-05-19T10:19:45.391Z,10.30
2017-05-19T10:22:14.412Z,8.24
2017-05-19T10:24:43.384Z,9.30
2017-05-19T10:27:12.366Z,9.46
2017-05-19T10:29:41.349Z,8.46
2017-05-19T10:32:10.334Z,11.28
2017-05-19T10:34:39.321Z,10.00
2017-05-19T10:37:08.333Z,24.46
2017-05-19T10:39:37.305Z,7.52
2017-05-19T10:42:06.283Z,6.94
2017-05-19T10:44:35.240Z,7.00
2017-05-19T10:47:04.261Z,6.82
2017-05-19T10:49:33.220Z,7.06
2017-05-19T10:52:02.210Z,6.82
2017-05-19T10:54:31.182Z,7.34
2017-05-19T10:57:00.205Z,8.34
2017-05-19T10:59:29.176Z,8.78
2017-05-19T11:01:58.169Z,7.82
2017-05-19T11:04:27.136Z,7.32
2017-05-19T11:06:56.132Z,6.46
2017-05-19T11:09:25.117Z,5.86
2017-05-19T11:11:54.108Z,5.10
2017-05-19T11:14:23.086Z,5.68
2017-05-19T11:16:52.130Z,7.38
2017-05-19T11:19:21.173Z,6.96
2017-05-19T11:21:50.177Z,8.40
2017-05-19T11:24:19.153Z,7.92
2017-05-19T11:26:48.150Z,6.82
2017-05-19T11:29:17.137Z,7.22
2017-05-19T11:31:46.186Z,9.84
2017-05-19T11:34:15.177Z,7.84
2017-05-19T11:36:44.183Z,7.74
2017-05-19T11:39:13.177Z,5.14
2017-05-19T11:41:42.181Z,5.72
2017-05-19T11:44:11.164Z,5.42
2017-05-19T11:46:40.175Z,5.22
2017-05-19T11:49:09.167Z,4.44
2017-05-19T11:51:38.142Z,4.90
2017-05-19T11:54:07.106Z,5.16
2017-05-19T11:56:36.109Z,5.40
2017-05-19T11:59:04.996Z,4.40
2017-05-19T12:01:34.317Z,4.62
2017-05-19T12:04:03.289Z,5.48
2017-05-19T12:06:32.549Z,5.24
2017-05-19T12:09:01.531Z,5.68
2017-05-19T12:11:42.687Z,5.88
2017-05-19T12:14:11.657Z,6.08
2017-05-19T12:16:40.643Z,4.32
2017-05-19T12:19:09.627Z,4.20
2017-05-19T12:21:38.597Z,4.52
2017-05-19T12:24:07.577Z,4.68
2017-05-19T12:26:36.555Z,4.18
2017-05-19T12:29:05.553Z,4.80
2017-05-19T12:31:34.530Z,4.56
2017-05-19T12:34:03.526Z,4.52
2017-05-19T12:36:32.510Z,4.38
2017-05-19T12:39:01.496Z,4.16
2017-05-19T12:41:30.489Z,4.46
2017-05-19T12:43:59.481Z,4.22
2017-05-19T12:46:28.481Z,3.50
2017-05-19T12:48:57.451Z,3.94
2017-05-19T12:51:26.432Z,4.02
2017-05-19T12:53:55.727Z,3.92
2017-05-19T12:56:24.686Z,4.18
2017-05-19T12:58:53.654Z,3.66
2017-05-19T13:01:22.919Z,4.16
2017-05-19T13:03:51.891Z,3.52
2017-05-19T13:06:20.865Z,4.34
2017-05-19T13:08:50.164Z,3.60
2017-05-19T13:11:19.147Z,3.50
2017-05-19T13:13:48.214Z,4.34
2017-05-19T13:16:17.439Z,4.26
2017-05-19T13:18:46.463Z,3.72
2017-05-19T13:21:15.439Z,3.52
2017-05-19T13:23:44.428Z,4.20
2017-05-19T13:26:13.407Z,4.42
2017-05-19T13:28:42.396Z,3.58
2017-05-19T13:31:11.380Z,3.74
2017-05-19T13:33:40.402Z,3.60
2017-05-19T13:36:09.354Z,3.96
2017-05-19T13:38:38.380Z,3.60
2017-05-19T13:41:07.351Z,3.64
2017-05-19T13:43:36.337Z,4.34
2017-05-19T13:46:05.314Z,3.98
2017-05-19T13:48:34.309Z,3.30
2017-05-19T13:51:03.287Z,3.80
2017-05-19T13:53:32.279Z,4.02
2017-05-19T13:56:01.247Z,4.50
2017-05-19T13:58:30.226Z,4.06
2017-05-19T14:00:59.193Z,4.08
2017-05-19T14:03:27.439Z,3.70
2017-05-19T14:05:56.424Z,3.90
2017-05-19T14:11:08.821Z,3.48
2017-05-19T14:13:37.785Z,4.00
2017-05-19T14:16:06.762Z,3.86
2017-05-19T14:18:35.844Z,3.90
2017-05-19T14:21:04.781Z,3.68
2017-05-19T14:23:33.755Z,4.42
2017-05-19T14:26:02.724Z,4.18
2017-05-19T14:28:33.208Z,3.48
2017-05-19T14:31:02.177Z,3.96
2017-05-19T14:33:31.191Z,4.16
2017-05-19T14:36:00.235Z,4.48
2017-05-19T14:38:29.241Z,4.46
2017-05-19T14:40:58.210Z,4.62
2017-05-19T14:43:27.194Z,4.20
2017-05-19T14:45:56.187Z,4.12
2017-05-19T14:48:25.185Z,11.36
2017-05-19T14:50:54.736Z,11.54
2017-05-19T14:53:23.671Z,13.90
2017-05-19T14:55:52.642Z,14.56
2017-05-19T14:58:21.631Z,13.48
2017-05-19T15:00:50.624Z,13.66
2017-05-19T15:03:19.610Z,13.68
2017-05-19T15:05:48.571Z,13.82
2017-05-19T15:08:17.563Z,13.28
2017-05-19T15:10:46.527Z,15.24
2017-05-19T15:13:15.538Z,14.30
2017-05-19T15:15:44.533Z,14.94
2017-05-19T15:18:13.905Z,11.24
2017-05-19T15:20:42.800Z,11.90
2017-05-19T15:23:11.867Z,11.80
2017-05-19T15:25:40.880Z,11.10
2017-05-19T15:28:10.133Z,10.58
2017-05-19T15:30:39.139Z,13.74
2017-05-19T15:33:08.116Z,11.08
2017-05-19T15:35:37.489Z,12.60
2017-05-19T15:38:06.497Z,12.40
2017-05-19T15:40:35.470Z,13.20
2017-05-19T15:43:04.745Z,12.98
2017-05-19T15:45:33.749Z,13.60
2017-05-19T15:48:02.744Z,14.48
2017-05-19T15:50:31.761Z,14.52
2017-05-19T15:53:00.751Z,14.42
2017-05-19T15:55:29.760Z,11.86
2017-05-19T15:57:58.767Z,9.50
2017-05-19T16:00:27.985Z,7.50
2017-05-19T16:02:56.958Z,5.56
2017-05-19T16:05:25.964Z,6.04
2017-05-19T16:07:54.949Z,4.50
2017-05-19T16:10:23.909Z,2.60
2017-05-19T16:12:52.876Z,2.22
2017-05-19T16:15:21.857Z,1.64
2017-05-19T16:17:51.124Z,2.42
2017-05-19T16:20:20.473Z,2.62
2017-05-19T16:22:49.471Z,2.56
2017-05-19T16:25:18.769Z,3.00
2017-05-19T16:27:47.701Z,2.60
2017-05-19T16:30:16.671Z,1.66
2017-05-19T16:32:46.018Z,2.06
2017-05-19T16:35:14.984Z,1.68
2017-05-19T16:37:43.984Z,1.20
2017-05-19T16:40:13.268Z,1.00
2017-05-19T16:42:42.258Z,0.96
2017-05-19T16:45:11.235Z,0.94
2017-05-19T16:47:57.895Z,0.90
2017-05-19T16:50:41.724Z,0.80
2017-05-19T16:53:11.023Z,0.70
2017-05-19T16:58:20.297Z,0.92
2017-05-19T17:01:04.138Z,0.70
2017-05-19T17:03:33.450Z,1.16
2017-05-19T17:06:02.459Z,0.86
2017-05-19T17:08:32.205Z,0.90
2017-05-19T17:11:01.231Z,0.73
2017-05-19T17:13:30.226Z,0.64
2017-05-19T17:15:59.592Z,0.68
2017-05-19T17:18:28.551Z,0.90
2017-05-19T17:20:57.547Z,1.22
2017-05-19T17:23:26.802Z,1.58
2017-05-19T17:25:55.779Z,1.10
2017-05-19T17:28:24.805Z,1.17
2017-05-19T17:30:54.047Z,1.45
2017-05-19T17:33:23.020Z,1.18
2017-05-19T17:35:52.000Z,1.92
2017-05-19T17:38:21.237Z,1.20
2017-05-19T17:40:50.227Z,1.57
2017-05-19T17:43:19.238Z,1.28
2017-05-19T17:45:48.275Z,1.40
2017-05-19T17:48:17.251Z,1.13
2017-05-19T17:50:46.583Z,1.22
2017-05-19T17:53:15.592Z,1.55
2017-05-19T17:55:44.550Z,0.82
2017-05-19T17:58:13.538Z,0.93
2017-05-19T18:00:42.515Z,0.75
2017-05-19T18:03:11.755Z,1.00
2017-05-19T18:05:40.713Z,1.70
2017-05-19T18:08:09.684Z,1.28
2017-05-19T18:10:38.671Z,1.00
2017-05-19T18:13:07.636Z,1.00
2017-05-19T18:15:36.928Z,0.95
2017-05-19T18:18:05.142Z,1.05
2017-05-19T18:20:34.129Z,0.90
2017-05-19T18:23:03.218Z,0.85
2017-05-19T18:25:32.189Z,0.82
2017-05-19T18:28:00.749Z,1.02
2017-05-19T18:30:29.771Z,1.07
2017-05-19T18:32:58.746Z,1.03
2017-05-19T18:35:27.726Z,1.05
2017-05-19T18:37:56.731Z,1.18
2017-05-19T18:40:25.978Z,1.00
2017-05-19T18:42:55.018Z,1.13
2017-05-19T18:45:24.025Z,0.92
2017-05-19T18:47:53.311Z,1.18
2017-05-19T18:50:22.305Z,1.27
2017-05-19T18:52:51.302Z,0.70
2017-05-19T18:55:20.296Z,1.23
2017-05-19T18:57:49.280Z,0.98
2017-05-19T19:00:18.486Z,0.95
2017-05-19T19:02:47.463Z,0.90
2017-05-19T19:05:16.444Z,1.10
2017-05-19T19:07:45.773Z,1.03
2017-05-19T19:10:14.849Z,1.12
2017-05-19T19:12:43.877Z,1.42
2017-05-19T19:15:12.889Z,1.35
2017-05-19T19:17:41.902Z,1.00
2017-05-19T19:20:11.216Z,1.05
2017-05-19T19:22:40.256Z,1.17
2017-05-19T19:25:09.236Z,0.90
2017-05-19T19:27:38.233Z,0.88
2017-05-19T19:30:07.302Z,0.60
2017-05-19T19:32:36.568Z,0.95
2017-05-19T19:35:05.557Z,0.70
2017-05-19T19:37:34.540Z,0.75
2017-05-19T19:40:03.534Z,0.68
2017-05-19T19:42:32.538Z,0.80
2017-05-19T19:45:01.819Z,0.67
2017-05-19T19:47:30.829Z,0.75
2017-05-19T19:49:59.936Z,0.88
2017-05-19T19:52:28.887Z,1.02
2017-05-19T19:54:57.885Z,0.90
2017-05-19T19:57:26.924Z,0.83
2017-05-19T19:59:55.907Z,0.97
2017-05-19T20:02:24.925Z,0.63
2017-05-19T20:04:54.231Z,0.80
2017-05-19T20:07:23.202Z,0.92
2017-05-19T20:09:52.187Z,0.95
2017-05-19T20:12:21.474Z,1.10
2017-05-19T20:14:50.460Z,1.00
2017-05-19T20:17:19.451Z,0.90
2017-05-19T20:19:48.831Z,1.00
2017-05-19T20:22:17.794Z,0.88
2017-05-19T20:24:46.693Z,1.00
2017-05-19T20:27:15.727Z,1.12
2017-05-19T20:29:44.693Z,1.13
2017-05-19T20:32:13.680Z,1.17
2017-05-19T20:34:42.665Z,1.35
2017-05-19T20:37:11.659Z,1.10
2017-05-19T20:39:40.635Z,1.20
2017-05-19T20:42:09.643Z,1.40
2017-05-19T20:44:38.623Z,1.03
2017-05-19T20:47:07.641Z,1.43
2017-05-19T20:49:36.635Z,1.17
2017-05-19T20:52:04.814Z,1.17
2017-05-19T20:54:33.828Z,1.33
2017-05-19T20:57:02.810Z,1.13
2017-05-19T20:59:31.778Z,1.20
2017-05-19T21:02:00.772Z,1.20
2017-05-19T21:04:28.982Z,1.27
2017-05-19T21:06:58.054Z,1.10
2017-05-19T21:09:27.030Z,1.12
2017-05-19T21:11:56.020Z,1.20
2017-05-19T21:14:24.983Z,1.15
2017-05-19T21:16:53.995Z,1.28
2017-05-19T21:19:22.962Z,1.43
2017-05-19T21:21:51.995Z,1.55
2017-05-19T21:24:20.209Z,1.42
2017-05-19T21:26:49.205Z,1.48
2017-05-19T21:29:18.250Z,1.28
2017-05-19T21:31:47.359Z,1.05
2017-05-19T21:34:16.329Z,1.48
2017-05-19T21:36:45.317Z,1.57
2017-05-19T21:39:14.215Z,1.22
2017-05-19T21:41:43.244Z,1.63
2017-05-19T21:44:12.230Z,1.57
2017-05-19T21:46:41.224Z,1.48
2017-05-19T21:49:10.191Z,1.30
2017-05-19T21:51:39.187Z,1.63
2017-05-19T21:54:08.170Z,1.55
2017-05-19T21:56:37.167Z,1.80
2017-05-19T21:59:06.141Z,1.40
2017-05-19T22:01:35.115Z,1.40
2017-05-19T22:04:04.094Z,1.58
2017-05-19T22:06:33.023Z,1.70
2017-05-19T22:09:02.028Z,1.82
2017-05-19T22:11:31.011Z,1.68
2017-05-19T22:13:59.973Z,1.63
2017-05-19T22:16:28.967Z,1.60
2017-05-19T22:18:57.958Z,1.93
2017-05-19T22:21:27.225Z,1.63
2017-05-19T22:23:56.215Z,1.60
2017-05-19T22:26:25.210Z,1.40
2017-05-19T22:28:54.208Z,1.62
2017-05-19T22:31:23.188Z,1.42
2017-05-19T22:33:52.169Z,1.47
2017-05-19T22:36:21.141Z,1.55
2017-05-19T22:38:50.126Z,1.38
2017-05-19T22:41:19.107Z,1.00
2017-05-19T22:43:48.118Z,1.40
2017-05-19T22:46:16.340Z,1.30
2017-05-19T22:48:45.334Z,1.22
2017-05-19T22:51:14.213Z,1.50
2017-05-19T22:53:43.235Z,1.50
2017-05-19T22:56:12.180Z,1.55
2017-05-19T22:58:41.241Z,1.35
2017-05-19T23:01:10.192Z,2.43
2017-05-19T23:03:39.183Z,1.37
2017-05-19T23:06:08.151Z,1.95
2017-05-19T23:08:37.074Z,1.78
2017-05-19T23:11:06.093Z,1.60
2017-05-19T23:13:34.301Z,2.38
2017-05-19T23:16:04.214Z,1.68
2017-05-19T23:18:33.222Z,2.20
2017-05-19T23:21:02.243Z,1.70
2017-05-19T23:23:31.259Z,2.30
2017-05-19T23:26:06.388Z,1.48
2017-05-19T23:28:35.385Z,1.60
2017-05-19T23:31:04.369Z,2.10
2017-05-19T23:33:33.349Z,1.68
2017-05-19T23:36:02.337Z,1.50
2017-05-19T23:38:31.321Z,1.80
2017-05-19T23:41:00.311Z,1.83
2017-05-19T23:43:29.278Z,1.40
2017-05-19T23:45:58.250Z,1.40
2017-05-19T23:48:27.234Z,1.42
2017-05-19T23:50:56.200Z,1.85
2017-05-19T23:53:25.204Z,1.82
2017-05-19T23:55:54.249Z,1.52
2017-05-19T23:58:22.487Z,1.98
